Time;durP1;ratioP1;P1;durP2;ratioP2;P2;SDS_P1;SDS_P2;PMS_P1;PMS_P2;Temp;Humidity;BMP_temperature;BMP_pressure;BME280_temperature;BME280_humidity;BME280_pressure;Samples;Min_cycle;Max_cycle;Signal;HPM_P1;HPM_P2
2021/06/04 00:00:11;;;;;;;11.05;10.25;;;;;;;20.60;65.58;102030.16;6140100;28;20242;-53
2021/06/04 00:03:33;;;;;;;10.88;9.98;;;;;;;20.68;65.43;102031.69;6133378;28;20227;-55
2021/06/04 00:06:54;;;;;;;11.57;10.68;;;;;;;20.73;65.38;102029.78;6137434;28;20235;-52
2021/06/04 00:10:17;;;;;;;12.35;11.35;;;;;;;20.80;64.92;102033.94;6137156;28;20333;-54
2021/06/04 00:13:39;;;;;;;11.02;10.23;;;;;;;20.65;65.70;102035.31;6137422;28;20243;-53
2021/06/04 00:17:06;;;;;;;10.80;10.00;;;;;;;20.66;65.21;102034.38;6124454;28;20330;-54
2021/06/04 00:20:27;;;;;;;13.02;12.10;;;;;;;20.57;65.65;102038.16;6135441;28;20235;-55
2021/06/04 00:23:48;;;;;;;12.23;10.98;;;;;;;20.48;66.06;102038.44;6142153;28;20243;-55
2021/06/04 00:27:09;;;;;;;11.45;10.65;;;;;;;20.49;66.35;102037.53;6139029;28;20655;-53
2021/06/04 00:30:30;;;;;;;12.07;11.18;;;;;;;20.78;64.85;102038.41;6141312;28;20620;-49
2021/06/04 00:33:52;;;;;;;11.70;10.80;;;;;;;20.55;65.78;102036.47;6130759;28;20219;-56
2021/06/04 00:37:12;;;;;;;11.65;10.75;;;;;;;20.54;65.87;102030.31;6138826;28;20306;-55
2021/06/04 00:40:37;;;;;;;14.38;13.18;;;;;;;20.83;64.82;102042.63;6140556;28;20322;-54
2021/06/04 00:43:58;;;;;;;13.20;12.15;;;;;;;20.72;65.35;102034.16;6144555;28;20554;-55
2021/06/04 00:47:20;;;;;;;12.55;11.65;;;;;;;20.69;65.32;102033.44;6138121;28;20249;-51
2021/06/04 00:50:51;;;;;;;14.50;13.10;;;;;;;20.52;65.90;102033.94;6140643;28;20259;-51
2021/06/04 00:54:13;;;;;;;13.30;12.18;;;;;;;20.66;65.46;102029.09;6137878;28;20239;-55
2021/06/04 00:57:37;;;;;;;12.88;11.77;;;;;;;20.61;65.53;102029.25;6142297;28;20652;-55
2021/06/04 01:01:00;;;;;;;14.98;12.13;;;;;;;20.64;65.42;102025.63;6141179;28;20318;-53
2021/06/04 01:04:24;;;;;;;12.90;11.63;;;;;;;20.64;65.51;102026.47;6139625;28;20251;-53
2021/06/04 01:08:03;;;;;;;12.50;11.40;;;;;;;20.72;65.63;102034.16;6137615;28;20495;-56
2021/06/04 01:11:33;;;;;;;13.05;12.15;;;;;;;20.70;65.29;102029.84;6122716;28;20239;-56
2021/06/04 01:15:02;;;;;;;13.88;12.77;;;;;;;20.74;65.32;102028.84;6126609;28;20242;-53
2021/06/04 01:18:49;;;;;;;11.48;10.68;;;;;;;20.64;65.86;102029.13;6138466;28;20226;-54
2021/06/04 01:22:21;;;;;;;12.70;11.50;;;;;;;20.71;65.46;102028.94;6132232;28;20227;-55
2021/06/04 01:25:50;;;;;;;13.55;12.52;;;;;;;20.81;64.88;102025.09;6133643;28;20226;-52
2021/06/04 01:29:15;;;;;;;14.18;12.85;;;;;;;20.78;64.92;102025.16;6137821;28;20438;-56
2021/06/04 01:32:37;;;;;;;12.73;11.65;;;;;;;20.74;65.18;102026.19;6131640;28;20231;-53
2021/06/04 01:36:00;;;;;;;13.52;12.35;;;;;;;20.62;65.82;102017.72;6136043;28;20230;-54
2021/06/04 01:39:28;;;;;;;13.80;12.70;;;;;;;20.58;65.99;102023.16;6129699;28;20238;-53
2021/06/04 01:42:51;;;;;;;14.77;13.68;;;;;;;20.80;65.07;102012.75;6137145;28;20239;-55
2021/06/04 01:46:24;;;;;;;13.00;11.95;;;;;;;20.87;64.94;102016.06;6135536;28;20604;-55
2021/06/04 01:49:53;;;;;;;14.50;13.00;;;;;;;20.83;64.92;102020.59;6131858;28;20246;-54
2021/06/04 01:53:19;;;;;;;12.50;11.40;;;;;;;20.76;65.25;102019.94;6130674;28;20238;-54
2021/06/04 01:56:44;;;;;;;13.52;12.43;;;;;;;20.79;64.97;102014.53;6135105;28;20716;-52
2021/06/04 02:00:14;;;;;;;13.85;12.85;;;;;;;20.69;65.57;102006.97;6122621;28;20246;-53
2021/06/04 02:03:38;;;;;;;13.65;12.45;;;;;;;20.55;66.07;102005.59;6129762;28;20238;-54
2021/06/04 02:07:08;;;;;;;13.77;12.65;;;;;;;20.49;66.41;102004.91;6148044;28;20229;-54
2021/06/04 02:10:33;;;;;;;14.23;13.23;;;;;;;20.56;66.25;102006.44;6133305;28;20267;-53
2021/06/04 02:13:55;;;;;;;15.85;14.75;;;;;;;20.63;65.82;102008.03;6136716;28;20235;-56
2021/06/04 02:17:40;;;;;;;14.82;13.73;;;;;;;20.81;64.86;102001.25;6134625;28;20916;-52
2021/06/04 02:21:14;;;;;;;14.27;13.27;;;;;;;20.60;65.90;102001.03;6139263;28;20546;-56
2021/06/04 02:24:41;;;;;;;15.15;14.02;;;;;;;20.56;66.03;101996.72;6128326;28;20235;-53
2021/06/04 02:28:08;;;;;;;14.65;13.48;;;;;;;20.56;65.80;101991.44;6135025;28;20238;-54
2021/06/04 02:31:37;;;;;;;15.02;13.82;;;;;;;20.49;66.37;101989.91;6142996;28;20238;-55
2021/06/04 02:35:07;;;;;;;14.05;12.90;;;;;;;20.56;66.16;101996.72;6135194;28;20879;-54
2021/06/04 02:38:32;;;;;;;14.30;13.15;;;;;;;20.44;66.54;101990.03;6131975;28;20231;-55
2021/06/04 02:41:58;;;;;;;14.68;13.52;;;;;;;20.30;66.92;101999.31;6135802;28;20250;-54
2021/06/04 02:45:28;;;;;;;14.50;13.50;;;;;;;20.36;66.44;101991.22;6132634;28;20310;-57
2021/06/04 02:48:51;;;;;;;14.75;13.52;;;;;;;20.13;67.50;101987.50;6136398;28;20230;-56
2021/06/04 02:52:31;;;;;;;15.13;13.93;;;;;;;20.29;66.65;101982.59;6123275;28;20234;-56
2021/06/04 02:56:11;;;;;;;15.52;14.23;;;;;;;20.22;66.61;101986.34;6149601;28;20239;-56
2021/06/04 02:59:37;;;;;;;34.78;32.08;;;;;;;20.02;66.62;101986.94;6134743;28;20306;-55
2021/06/04 03:02:58;;;;;;;37.92;34.90;;;;;;;20.07;66.89;101982.41;6132086;28;20542;-54
2021/06/04 03:06:25;;;;;;;35.58;32.65;;;;;;;19.98;67.21;101990.59;6130017;28;20238;-51
2021/06/04 03:09:50;;;;;;;26.10;24.08;;;;;;;20.11;66.21;101988.47;6134425;28;20235;-53
2021/06/04 03:13:17;;;;;;;19.88;18.25;;;;;;;20.03;66.81;101991.34;6130626;28;20601;-54
2021/06/04 03:16:39;;;;;;;15.48;14.05;;;;;;;20.11;66.28;101988.47;6120278;28;20227;-54
2021/06/04 03:20:06;;;;;;;14.43;13.32;;;;;;;19.99;66.79;101985.28;6135620;28;20231;-53
2021/06/04 03:23:36;;;;;;;13.68;12.68;;;;;;;19.91;66.75;101991.69;6148322;28;20234;-51
2021/06/04 03:27:00;;;;;;;12.40;11.35;;;;;;;19.81;66.96;101991.09;6136992;28;20235;-55
2021/06/04 03:30:24;;;;;;;14.18;13.00;;;;;;;19.72;67.07;101997.53;6133736;28;20841;-54
2021/06/04 03:33:46;;;;;;;15.13;13.68;;;;;;;19.74;66.71;102001.00;6148355;28;20294;-54
2021/06/04 03:37:08;;;;;;;14.15;12.98;;;;;;;19.73;66.72;101988.66;6138733;28;20233;-56
2021/06/04 03:40:33;;;;;;;14.07;12.98;;;;;;;19.88;65.99;101999.72;6135047;28;20338;-54
2021/06/04 03:43:56;;;;;;;13.52;12.35;;;;;;;19.83;65.96;102003.38;6135136;28;20271;-56
2021/06/04 03:47:18;;;;;;;12.38;11.27;;;;;;;19.76;66.00;102015.03;6153808;28;20230;-56
2021/06/04 03:50:40;;;;;;;12.88;11.77;;;;;;;19.74;65.95;102014.19;6136624;28;20613;-54
2021/06/04 03:54:01;;;;;;;12.20;11.25;;;;;;;19.77;65.30;102010.59;6136430;28;20254;-51
2021/06/04 03:57:26;;;;;;;11.48;10.68;;;;;;;19.72;64.76;102017.81;6138894;28;20242;-55
2021/06/04 04:00:51;;;;;;;10.60;9.80;;;;;;;19.81;64.38;102007.84;6141937;28;20226;-55
2021/06/04 04:04:12;;;;;;;12.30;11.40;;;;;;;19.72;64.66;102012.53;6144897;28;20243;-55
2021/06/04 04:07:33;;;;;;;11.32;10.43;;;;;;;19.88;63.75;102012.94;6143278;28;20323;-56
2021/06/04 04:10:55;;;;;;;10.45;9.55;;;;;;;19.68;63.93;102017.00;6140795;28;20297;-52
2021/06/04 04:14:16;;;;;;;10.45;9.65;;;;;;;19.74;63.52;102001.00;6144024;28;20593;-56
2021/06/04 04:17:38;;;;;;;10.40;9.32;;;;;;;19.91;63.01;102004.91;6137006;28;20231;-53
2021/06/04 04:21:02;;;;;;;10.68;9.82;;;;;;;19.90;62.69;102016.41;6138492;28;20262;-55
2021/06/04 04:24:28;;;;;;;10.10;9.30;;;;;;;20.02;62.18;102016.03;6126049;28;20258;-53
2021/06/04 04:27:49;;;;;;;9.55;8.73;;;;;;;20.05;61.67;102008.03;6139374;28;20258;-52
2021/06/04 04:31:19;;;;;;;10.95;10.05;;;;;;;20.29;61.24;102010.84;6139956;28;20250;-56
2021/06/04 04:34:42;;;;;;;10.75;9.68;;;;;;;20.17;61.23;102010.28;6142262;28;20317;-54
2021/06/04 04:38:04;;;;;;;9.55;8.75;;;;;;;20.24;61.05;102011.00;6144324;28;20243;-56
2021/06/04 04:41:25;;;;;;;10.23;9.45;;;;;;;20.45;60.54;102010.31;6145712;28;20529;-53
2021/06/04 04:44:47;;;;;;;9.13;8.52;;;;;;;20.56;59.91;102023.19;6137497;28;20282;-56
2021/06/04 04:48:08;;;;;;;8.60;7.90;;;;;;;20.57;59.06;102016.09;6139483;28;20612;-55
2021/06/04 04:51:32;;;;;;;7.00;6.50;;;;;;;20.63;58.88;102021.25;6134493;28;20231;-53
2021/06/04 04:54:55;;;;;;;8.93;8.18;;;;;;;20.35;59.01;102022.06;6128408;28;20231;-53
2021/06/04 04:58:16;;;;;;;8.02;7.53;;;;;;;20.52;58.78;102016.25;6134234;28;20227;-52
2021/06/04 05:01:37;;;;;;;8.13;7.63;;;;;;;20.59;58.17;102014.31;6132318;28;20520;-52
2021/06/04 05:04:57;;;;;;;9.02;8.23;;;;;;;20.72;57.89;102018.28;6133215;28;20239;-56
2021/06/04 05:08:19;;;;;;;9.05;8.35;;;;;;;20.69;58.06;102015.75;6137945;28;20231;-55
2021/06/04 05:11:40;;;;;;;9.50;8.27;;;;;;;20.45;58.09;102014.72;6128144;28;20228;-54
2021/06/04 05:15:01;;;;;;;7.97;7.25;;;;;;;20.56;58.05;102017.03;6137306;28;20231;-55
2021/06/04 05:18:22;;;;;;;8.63;7.90;;;;;;;20.54;58.28;102010.94;6136084;28;20507;-55
2021/06/04 05:21:43;;;;;;;8.15;7.45;;;;;;;20.92;57.23;102017.66;6129555;28;20787;-52
2021/06/04 05:25:09;;;;;;;8.65;8.02;;;;;;;20.86;57.28;102015.22;6135887;28;20321;-51
2021/06/04 05:28:30;;;;;;;8.85;7.95;;;;;;;20.87;57.01;102022.22;6136391;28;20239;-56
2021/06/04 05:31:51;;;;;;;7.55;6.80;;;;;;;21.00;56.29;102023.56;6132226;28;20235;-53
2021/06/04 05:35:12;;;;;;;9.27;7.18;;;;;;;21.04;56.47;102019.88;6137224;28;20231;-55
2021/06/04 05:38:32;;;;;;;7.70;7.07;;;;;;;21.03;56.25;102020.81;6136552;28;20239;-55
2021/06/04 05:41:59;;;;;;;7.50;6.78;;;;;;;21.11;56.92;102019.66;6115068;28;20633;-58
2021/06/04 05:45:23;;;;;;;7.28;6.65;;;;;;;21.33;55.33;102020.66;6136822;28;20242;-57
2021/06/04 05:48:43;;;;;;;7.68;7.07;;;;;;;21.43;54.58;102022.09;6132530;28;20239;-56
2021/06/04 05:52:09;;;;;;;7.40;6.80;;;;;;;21.57;54.77;102018.09;6130194;28;20239;-59
2021/06/04 05:55:30;;;;;;;7.82;7.03;;;;;;;21.68;53.83;102021.22;6136945;28;20227;-57
2021/06/04 05:58:52;;;;;;;7.07;6.57;;;;;;;21.90;54.13;102015.09;6135364;28;20554;-55
2021/06/04 06:02:13;;;;;;;10.00;8.32;;;;;;;22.12;54.01;102025.75;6132017;28;20223;-57
2021/06/04 06:05:33;;;;;;;7.57;7.00;;;;;;;22.11;53.02;102022.25;6126633;28;20235;-57
2021/06/04 06:08:54;;;;;;;7.88;7.28;;;;;;;21.98;53.52;102023.63;6130349;28;20365;-58
2021/06/04 06:12:14;;;;;;;7.20;6.47;;;;;;;22.48;52.60;102022.63;6138611;28;20640;-56
2021/06/04 06:15:37;;;;;;;7.57;7.03;;;;;;;22.47;52.11;102031.50;6132704;28;20230;-58
2021/06/04 06:18:58;;;;;;;7.50;6.80;;;;;;;22.36;51.03;102029.28;6132494;28;20246;-58
2021/06/04 06:22:18;;;;;;;6.38;5.88;;;;;;;22.49;50.94;102029.66;6134845;28;20337;-58
2021/06/04 06:25:41;;;;;;;7.40;6.28;;;;;;;22.52;50.42;102030.41;6127325;28;20532;-58
2021/06/04 06:29:03;;;;;;;7.55;6.95;;;;;;;22.34;51.10;102042.63;6141386;28;20222;-59
2021/06/04 06:32:24;;;;;;;7.55;6.72;;;;;;;22.38;52.22;102044.22;6141895;28;20239;-57
2021/06/04 06:35:48;;;;;;;7.20;6.65;;;;;;;22.60;51.29;102043.38;6126491;28;20761;-55
2021/06/04 06:39:13;;;;;;;6.57;6.05;;;;;;;22.63;50.64;102047.72;6123132;28;20235;-58
2021/06/04 06:42:34;;;;;;;7.78;7.03;;;;;;;23.02;50.08;102039.03;6132944;28;20228;-60
2021/06/04 06:45:56;;;;;;;7.18;6.45;;;;;;;22.79;50.93;102033.72;6128595;28;20250;-58
2021/06/04 06:49:19;;;;;;;7.72;7.03;;;;;;;22.42;50.57;102050.28;6133035;28;20234;-56
2021/06/04 06:52:40;;;;;;;6.45;5.95;;;;;;;23.04;50.54;102037.19;6135139;28;20235;-56
2021/06/04 06:56:00;;;;;;;7.28;6.65;;;;;;;23.16;51.19;102037.53;6128350;28;20246;-58
2021/06/04 06:59:22;;;;;;;7.63;6.85;;;;;;;23.09;50.23;102032.53;6129518;28;20235;-58
2021/06/04 07:02:43;;;;;;;6.78;6.18;;;;;;;23.27;51.34;102039.72;6124079;28;20239;-53
2021/06/04 07:06:08;;;;;;;7.18;6.57;;;;;;;23.45;50.11;102047.84;6131859;28;20243;-58
2021/06/04 07:09:29;;;;;;;6.95;6.35;;;;;;;23.67;50.61;102048.63;6136936;28;20235;-56
2021/06/04 07:12:49;;;;;;;6.38;5.88;;;;;;;23.30;49.69;102044.91;6134020;28;21426;-55
2021/06/04 07:16:11;;;;;;;5.93;5.53;;;;;;;23.39;50.20;102054.28;6126606;28;20700;-56
2021/06/04 07:19:34;;;;;;;7.50;6.80;;;;;;;23.45;49.73;102053.16;6137816;28;20227;-57
2021/06/04 07:22:56;;;;;;;7.30;6.70;;;;;;;23.52;49.94;102055.47;6129790;28;20239;-58
2021/06/04 07:26:18;;;;;;;8.73;7.65;;;;;;;23.48;49.48;102047.72;6123521;28;20242;-57
2021/06/04 07:29:38;;;;;;;7.20;6.53;;;;;;;23.55;49.36;102051.81;6126628;28;20231;-56
2021/06/04 07:33:01;;;;;;;7.85;7.10;;;;;;;24.15;48.83;102051.78;6134441;28;20621;-59
2021/06/04 07:36:25;;;;;;;6.45;5.95;;;;;;;24.21;48.37;102047.97;6123882;28;20238;-57
2021/06/04 07:39:48;;;;;;;9.27;7.07;;;;;;;24.20;48.03;102052.44;6131635;28;20235;-59
2021/06/04 07:43:13;;;;;;;8.77;8.07;;;;;;;24.48;46.98;102045.78;6128320;28;20228;-57
2021/06/04 07:46:35;;;;;;;8.10;7.35;;;;;;;24.33;46.46;102045.59;6129105;28;20622;-58
2021/06/04 07:49:57;;;;;;;8.00;7.20;;;;;;;24.17;47.71;102048.13;6133358;28;20243;-58
2021/06/04 07:53:20;;;;;;;8.27;7.32;;;;;;;24.20;47.82;102051.56;6131323;28;20235;-58
2021/06/04 07:56:43;;;;;;;7.43;6.70;;;;;;;24.56;47.57;102051.63;6120811;28;20306;-53
2021/06/04 08:00:05;;;;;;;7.10;6.43;;;;;;;24.54;46.48;102054.41;6130905;28;20227;-56
2021/06/04 08:03:26;;;;;;;8.05;7.18;;;;;;;24.58;46.99;102056.88;6134584;28;20235;-57
2021/06/04 08:06:47;;;;;;;7.40;5.93;;;;;;;25.08;45.78;102053.50;6125251;28;20231;-54
2021/06/04 08:10:09;;;;;;;7.28;6.78;;;;;;;24.88;44.55;102055.38;6135125;28;20239;-58
2021/06/04 08:13:31;;;;;;;7.75;6.95;;;;;;;23.55;47.19;102063.31;6137304;28;20318;-58
2021/06/04 08:16:54;;;;;;;7.35;6.60;;;;;;;24.15;46.38;102063.28;6132714;28;20385;-59
2021/06/04 08:20:22;;;;;;;8.05;7.35;;;;;;;24.99;44.79;102062.84;6126906;28;20587;-56
2021/06/04 08:23:44;;;;;;;9.13;8.23;;;;;;;23.87;45.96;102057.53;6131678;28;20242;-54
2021/06/04 08:27:07;;;;;;;6.63;6.13;;;;;;;24.56;44.99;102049.84;6130299;28;20317;-57
2021/06/04 08:30:29;;;;;;;7.93;7.32;;;;;;;24.89;44.47;102043.81;6135340;28;20228;-55
2021/06/04 08:33:50;;;;;;;8.07;7.28;;;;;;;24.84;44.95;102048.47;6131577;28;20236;-52
2021/06/04 08:37:11;;;;;;;6.88;6.25;;;;;;;25.34;43.00;102044.22;6135516;28;20345;-52
2021/06/04 08:40:35;;;;;;;7.25;6.65;;;;;;;25.80;42.83;102046.25;6130337;28;20318;-54
2021/06/04 08:44:08;;;;;;;7.00;6.50;;;;;;;25.78;42.30;102050.81;6136340;28;20318;-55
2021/06/04 08:47:34;;;;;;;8.05;7.35;;;;;;;25.50;43.71;102039.81;6129485;28;20383;-56
2021/06/04 08:51:07;;;;;;;7.70;6.95;;;;;;;26.02;43.02;102049.50;6136520;28;21672;-59
2021/06/04 08:54:36;;;;;;;6.63;6.22;;;;;;;26.48;42.55;102040.72;6136721;28;20231;-57
2021/06/04 08:58:10;;;;;;;6.65;6.15;;;;;;;26.69;42.10;102031.50;6136656;28;20262;-58
2021/06/04 09:01:36;;;;;;;7.72;6.85;;;;;;;26.10;41.39;102035.75;6127468;28;20609;-58
2021/06/04 09:05:01;;;;;;;8.65;7.85;;;;;;;25.36;43.09;102029.00;6135450;28;20235;-56
2021/06/04 09:08:27;;;;;;;7.45;6.78;;;;;;;25.63;43.54;102031.13;6139422;28;20246;-58
2021/06/04 09:11:52;;;;;;;8.13;7.30;;;;;;;26.30;43.02;102022.13;6125322;28;20897;-56
2021/06/04 09:15:15;;;;;;;7.70;7.20;;;;;;;26.55;41.91;102020.72;6139235;28;20235;-57
2021/06/04 09:18:44;;;;;;;8.23;7.43;;;;;;;25.77;41.13;102027.75;6134664;28;20260;-57
2021/06/04 09:22:08;;;;;;;7.65;7.05;;;;;;;25.60;40.27;102026.84;6139461;28;20246;-57
2021/06/04 09:25:30;;;;;;;6.93;6.43;;;;;;;24.76;42.39;102024.03;6132571;28;20258;-56
2021/06/04 09:29:13;;;;;;;6.45;5.95;;;;;;;25.77;40.53;102033.09;6138926;28;20604;-56
2021/06/04 09:32:34;;;;;;;6.55;5.95;;;;;;;26.00;40.13;102023.81;6129384;28;20239;-59
2021/06/04 09:36:13;;;;;;;7.78;5.70;;;;;;;25.86;40.18;102027.22;6132588;28;20235;-58
2021/06/04 09:39:39;;;;;;;5.28;4.88;;;;;;;26.37;38.87;102028.00;6132556;28;20235;-55
2021/06/04 09:43:12;;;;;;;8.52;6.47;;;;;;;26.34;38.61;102028.16;6137124;28;20235;-60
2021/06/04 09:46:39;;;;;;;6.30;5.80;;;;;;;27.17;39.64;102018.00;6132945;28;20541;-57
2021/06/04 09:50:16;;;;;;;6.28;5.78;;;;;;;27.22;37.70;102017.72;6135293;28;20234;-58
2021/06/04 09:53:36;;;;;;;5.75;5.35;;;;;;;24.98;41.42;102029.13;6134761;28;20272;-58
2021/06/04 09:57:07;;;;;;;6.30;5.80;;;;;;;25.84;40.32;102031.78;6131594;28;20321;-57
2021/06/04 10:00:32;;;;;;;7.25;6.65;;;;;;;25.52;41.14;102029.06;6136584;28;20231;-54
2021/06/04 10:04:00;;;;;;;8.77;7.97;;;;;;;25.96;40.89;102023.16;6134634;28;20235;-54
2021/06/04 10:07:23;;;;;;;9.10;6.15;;;;;;;26.66;39.44;102023.69;6132535;28;20231;-56
2021/06/04 10:10:44;;;;;;;7.15;6.50;;;;;;;26.20;40.10;102028.94;6136540;28;20235;-58
2021/06/04 10:14:20;;;;;;;7.80;7.05;;;;;;;26.83;39.37;102025.38;6132027;28;20246;-58
2021/06/04 10:17:47;;;;;;;8.88;8.07;;;;;;;26.88;39.07;102017.06;6134591;28;20258;-58
2021/06/04 10:21:13;;;;;;;8.88;6.78;;;;;;;26.39;39.18;102025.25;6128840;28;20595;-58
2021/06/04 10:24:42;;;;;;;9.35;6.78;;;;;;;27.15;38.80;102011.88;6125299;28;20231;-58
2021/06/04 10:28:03;;;;;;;6.03;5.53;;;;;;;27.14;37.11;102011.97;6130461;28;20247;-56
2021/06/04 10:31:43;;;;;;;5.47;4.97;;;;;;;27.71;36.94;102016.56;6134449;28;21195;-57
2021/06/04 10:35:15;;;;;;;5.65;4.72;;;;;;;28.36;36.64;102016.81;6136899;28;20231;-59
2021/06/04 10:38:40;;;;;;;6.18;5.57;;;;;;;28.76;36.28;102019.56;6138806;28;20226;-58
2021/06/04 10:42:10;;;;;;;5.10;4.00;;;;;;;28.46;33.32;102020.63;6127117;28;20235;-57
2021/06/04 10:45:34;;;;;;;6.07;4.40;;;;;;;27.15;34.45;102019.91;6128539;28;20230;-57
2021/06/04 10:49:27;;;;;;;5.53;5.13;;;;;;;27.01;35.98;102017.22;6131207;28;20235;-58
2021/06/04 10:53:01;;;;;;;5.22;4.88;;;;;;;28.26;36.55;102013.03;6127459;28;20238;-58
2021/06/04 10:56:30;;;;;;;7.40;6.47;;;;;;;28.56;34.71;102020.06;6120650;28;20226;-58
2021/06/04 10:59:55;;;;;;;6.70;6.20;;;;;;;27.86;34.90;102005.72;6118887;28;20223;-56
2021/06/04 11:03:18;;;;;;;5.32;4.90;;;;;;;28.57;34.21;102000.34;6127041;28;21903;-59
2021/06/04 11:07:00;;;;;;;5.75;5.25;;;;;;;29.06;33.95;102002.34;6125453;28;20231;-60
2021/06/04 11:10:24;;;;;;;6.22;5.63;;;;;;;28.80;34.00;102001.47;6113663;28;20663;-56
2021/06/04 11:13:59;;;;;;;6.88;5.63;;;;;;;27.07;35.95;102007.00;6123132;28;20235;-58
2021/06/04 11:17:27;;;;;;;5.65;5.13;;;;;;;28.25;34.70;101997.94;6126793;28;20255;-54
2021/06/04 11:20:52;;;;;;;5.28;4.88;;;;;;;28.85;34.75;101991.31;6106298;28;20231;-56
2021/06/04 11:24:20;;;;;;;6.00;5.47;;;;;;;29.42;33.89;102001.66;6122375;28;20358;-57
2021/06/04 11:27:45;;;;;;;6.63;6.03;;;;;;;27.54;35.40;102002.41;6121333;28;20234;-57
2021/06/04 11:31:08;;;;;;;6.57;5.63;;;;;;;28.08;33.51;101993.69;6122735;28;20239;-57
2021/06/04 11:34:42;;;;;;;4.90;3.95;;;;;;;29.00;32.35;101989.38;6121733;28;20247;-57
2021/06/04 11:38:08;;;;;;;5.38;4.88;;;;;;;29.17;31.84;101994.47;6126502;28;20243;-55
2021/06/04 11:41:40;;;;;;;4.80;4.50;;;;;;;30.07;31.01;101994.38;6132673;28;20668;-56
2021/06/04 11:45:02;;;;;;;5.47;4.57;;;;;;;29.64;30.85;101992.06;6115515;28;20357;-57
2021/06/04 11:48:34;;;;;;;5.60;4.55;;;;;;;29.25;30.89;101991.25;6120705;28;20234;-58
2021/06/04 11:52:21;;;;;;;4.13;3.83;;;;;;;30.17;31.36;101984.66;6121024;28;20219;-56
2021/06/04 11:55:42;;;;;;;8.15;4.97;;;;;;;28.64;33.20;101997.13;6121983;28;20246;-55
2021/06/04 11:59:05;;;;;;;5.18;4.68;;;;;;;28.98;31.96;101989.47;6127125;28;20632;-57
2021/06/04 12:02:41;;;;;;;4.80;3.85;;;;;;;29.65;32.72;101967.81;6125287;28;20231;-57
2021/06/04 12:06:35;;;;;;;4.22;3.83;;;;;;;29.15;32.20;101972.25;6123013;28;20783;-50
2021/06/04 12:09:57;;;;;;;3.97;3.78;;;;;;;29.42;32.87;101966.78;6122338;28;20235;-56
2021/06/04 12:13:31;;;;;;;5.03;3.72;;;;;;;30.31;31.26;101962.16;6124277;28;20239;-57
2021/06/04 12:17:24;;;;;;;3.97;3.67;;;;;;;30.10;30.08;101961.06;6128368;28;20733;-57
2021/06/04 12:20:44;;;;;;;3.58;3.28;;;;;;;30.71;29.27;101955.59;6130642;28;20247;-57
2021/06/04 12:24:07;;;;;;;4.65;4.30;;;;;;;29.63;31.08;101959.00;6127857;28;20806;-52
2021/06/04 12:28:03;;;;;;;5.35;4.82;;;;;;;29.89;32.08;101960.81;6117035;28;21620;-56
2021/06/04 12:31:47;;;;;;;5.13;4.68;;;;;;;29.64;32.10;101952.69;6131586;28;20247;-56
2021/06/04 12:35:37;;;;;;;4.75;4.35;;;;;;;29.43;32.42;101956.91;6130022;28;20235;-53
2021/06/04 12:39:45;;;;;;;4.47;4.18;;;;;;;29.84;32.02;101950.41;6132883;28;20231;-58
2021/06/04 12:43:18;;;;;;;7.13;4.85;;;;;;;30.16;30.57;101949.84;6127822;28;20247;-57
2021/06/04 12:46:38;;;;;;;5.22;4.82;;;;;;;30.71;31.18;101945.72;6128491;28;20235;-56
2021/06/04 12:50:14;;;;;;;5.68;5.05;;;;;;;30.70;30.93;101935.91;6130125;28;21130;-55
2021/06/04 12:53:36;;;;;;;6.25;5.35;;;;;;;30.41;31.69;101933.63;6124953;28;20690;-57
2021/06/04 12:56:59;;;;;;;5.18;4.88;;;;;;;30.67;31.58;101924.53;6112520;28;20617;-55
2021/06/04 13:00:25;;;;;;;6.35;5.55;;;;;;;31.20;31.29;101938.34;6130509;28;20605;-55
2021/06/04 13:03:47;;;;;;;6.00;5.57;;;;;;;31.49;30.85;101927.13;6130712;28;20242;-61
2021/06/04 13:07:17;;;;;;;7.07;6.45;;;;;;;30.67;31.17;101920.03;6130321;28;20235;-61
2021/06/04 13:10:48;;;;;;;7.38;6.40;;;;;;;31.36;30.64;101920.00;6138262;28;20227;-61
2021/06/04 13:14:32;;;;;;;6.25;5.78;;;;;;;32.18;29.15;101911.56;6125174;28;20337;-61
2021/06/04 13:17:58;;;;;;;7.18;6.45;;;;;;;31.81;29.16;101911.03;6128300;28;20222;-61
2021/06/04 13:21:22;;;;;;;6.88;5.78;;;;;;;31.12;30.67;101914.75;6131789;28;20235;-59
2021/06/04 13:24:46;;;;;;;8.95;8.13;;;;;;;32.29;29.20;101905.25;6131128;28;20524;-60
2021/06/04 13:28:13;;;;;;;7.30;6.80;;;;;;;35.42;26.12;101914.78;6136200;28;20227;-59
2021/06/04 13:31:38;;;;;;;5.90;5.35;;;;;;;37.14;24.14;101910.91;6124802;28;20232;-59
2021/06/04 13:35:05;;;;;;;6.43;5.88;;;;;;;34.04;27.39;101915.16;6127687;28;20238;-60
2021/06/04 13:38:31;;;;;;;7.95;5.93;;;;;;;32.97;28.92;101903.00;6137956;28;20250;-58
2021/06/04 13:41:55;;;;;;;6.63;6.13;;;;;;;32.96;29.16;101895.09;6129219;28;20231;-59
2021/06/04 13:45:17;;;;;;;6.20;5.55;;;;;;;32.28;29.20;101892.78;6125805;28;20299;-59
2021/06/04 13:48:38;;;;;;;5.97;5.50;;;;;;;33.29;28.66;101902.06;6134423;28;20235;-60
2021/06/04 13:52:00;;;;;;;5.85;5.15;;;;;;;32.27;29.26;101893.75;6132964;28;20231;-58
2021/06/04 13:55:21;;;;;;;6.82;6.07;;;;;;;31.01;32.16;101887.84;6133993;28;20262;-58
2021/06/04 13:58:43;;;;;;;7.47;6.78;;;;;;;30.37;34.36;101899.06;6128924;28;20636;-61
2021/06/04 14:02:30;;;;;;;5.47;4.95;;;;;;;30.45;34.12;101885.03;6139979;28;20251;-60
2021/06/04 14:05:57;;;;;;;7.72;5.47;;;;;;;30.17;35.05;101887.13;6112581;28;20227;-60
2021/06/04 14:09:30;;;;;;;9.25;8.55;;;;;;;30.10;35.60;101888.53;6140029;28;20250;-60
2021/06/04 14:13:00;;;;;;;6.50;5.97;;;;;;;29.59;36.93;101892.25;6130194;28;20227;-60
2021/06/04 14:16:35;;;;;;;5.63;5.22;;;;;;;29.91;37.44;101886.38;6127962;28;20344;-57
2021/06/04 14:19:57;;;;;;;6.68;6.15;;;;;;;30.28;35.74;101883.59;6128938;28;20231;-60
2021/06/04 14:23:23;;;;;;;5.78;5.38;;;;;;;30.75;35.10;101887.19;6133697;28;21075;-62
2021/06/04 14:26:50;;;;;;;6.03;5.53;;;;;;;30.26;35.26;101888.22;6131552;28;20238;-54
2021/06/04 14:30:31;;;;;;;10.77;9.82;;;;;;;30.26;35.62;101889.09;6116777;28;20310;-59
2021/06/04 14:33:55;;;;;;;9.10;8.40;;;;;;;30.55;34.78;101886.88;6124429;28;20803;-59
2021/06/04 14:37:35;;;;;;;9.65;8.82;;;;;;;30.22;35.97;101882.22;6117851;28;20239;-59
2021/06/04 14:40:59;;;;;;;7.53;6.97;;;;;;;29.95;36.00;101883.38;6124188;28;20239;-58
2021/06/04 14:44:21;;;;;;;8.18;7.32;;;;;;;29.95;36.18;101888.72;6127431;28;20235;-58
2021/06/04 14:47:43;;;;;;;8.48;7.70;;;;;;;29.63;36.88;101878.50;6131080;28;20625;-58
2021/06/04 14:51:06;;;;;;;12.18;11.10;;;;;;;29.54;37.33;101867.56;6123036;28;20231;-58
2021/06/04 14:54:26;;;;;;;8.88;8.07;;;;;;;29.37;37.48;101866.13;6123274;28;20587;-58
2021/06/04 14:57:47;;;;;;;11.35;10.45;;;;;;;29.39;37.75;101864.19;6123455;28;20242;-58
2021/06/04 15:01:11;;;;;;;11.95;10.85;;;;;;;29.65;36.80;101865.81;6124686;28;20243;-57
2021/06/04 15:04:31;;;;;;;11.77;10.68;;;;;;;30.23;36.41;101865.16;6125394;28;20588;-58
2021/06/04 15:07:54;;;;;;;8.43;7.63;;;;;;;30.37;35.51;101864.13;6131296;28;20318;-56
2021/06/04 15:11:18;;;;;;;11.52;10.65;;;;;;;30.53;35.10;101858.41;6134978;28;20247;-55
2021/06/04 15:14:39;;;;;;;9.13;8.43;;;;;;;30.89;34.96;101856.53;6132409;28;20243;-58
2021/06/04 15:18:01;;;;;;;8.40;7.80;;;;;;;31.29;34.42;101847.97;6135084;28;20235;-53
2021/06/04 15:21:25;;;;;;;7.88;7.28;;;;;;;31.79;33.61;101845.66;6130625;28;20506;-57
2021/06/04 15:24:47;;;;;;;14.38;13.23;;;;;;;31.54;33.84;101847.72;6125734;28;20672;-57
2021/06/04 15:28:10;;;;;;;7.45;6.95;;;;;;;31.51;33.88;101844.44;6138084;28;20234;-57
2021/06/04 15:31:30;;;;;;;12.93;11.93;;;;;;;31.37;33.72;101837.47;6130341;28;20565;-55
2021/06/04 15:34:50;;;;;;;14.45;13.23;;;;;;;31.63;32.93;101834.47;6133339;28;20239;-58
2021/06/04 15:38:11;;;;;;;6.63;6.13;;;;;;;31.55;33.01;101833.28;6129239;28;20235;-59
2021/06/04 15:41:35;;;;;;;9.25;8.38;;;;;;;31.57;33.47;101831.31;6131549;28;20523;-58
2021/06/04 15:44:55;;;;;;;12.05;10.95;;;;;;;31.31;33.57;101829.84;6126685;28;20243;-56
2021/06/04 15:48:16;;;;;;;18.98;16.65;;;;;;;30.88;34.36;101827.91;6133247;28;20234;-58